sensor_id;sensor_type;location;lat;lon;timestamp;P1;durP1;ratioP1;P2;durP2;ratioP2
48361;SDS011;34510;51.888;5.670;2023-04-28T00:04:55;704.75;;;485.05;;
48361;SDS011;34510;51.888;5.670;2023-04-28T00:09:58;684.92;;;482.80;;
48361;SDS011;34510;51.888;5.670;2023-04-28T00:15:00;687.80;;;476.67;;
48361;SDS011;34510;51.888;5.670;2023-04-28T00:20:12;675.63;;;475.15;;
48361;SDS011;34510;51.888;5.670;2023-04-28T00:25:14;629.83;;;451.13;;
48361;SDS011;34510;51.888;5.670;2023-04-28T00:30:17;622.97;;;464.88;;
48361;SDS011;34510;51.888;5.670;2023-04-28T00:35:19;630.60;;;468.45;;
48361;SDS011;34510;51.888;5.670;2023-04-28T00:40:22;636.53;;;475.20;;
48361;SDS011;34510;51.888;5.670;2023-04-28T00:45:24;650.97;;;473.25;;
48361;SDS011;34510;51.888;5.670;2023-04-28T00:50:28;642.05;;;476.60;;
48361;SDS011;34510;51.888;5.670;2023-04-28T00:55:33;644.78;;;465.17;;
48361;SDS011;34510;51.888;5.670;2023-04-28T01:00:36;634.45;;;474.13;;
48361;SDS011;34510;51.888;5.670;2023-04-28T01:05:38;636.15;;;468.17;;
48361;SDS011;34510;51.888;5.670;2023-04-28T01:10:43;633.83;;;472.67;;
48361;SDS011;34510;51.888;5.670;2023-04-28T01:16:03;627.03;;;464.58;;
48361;SDS011;34510;51.888;5.670;2023-04-28T01:21:06;631.55;;;479.00;;
48361;SDS011;34510;51.888;5.670;2023-04-28T01:26:09;615.90;;;446.88;;
48361;SDS011;34510;51.888;5.670;2023-04-28T01:31:12;618.30;;;467.35;;
48361;SDS011;34510;51.888;5.670;2023-04-28T01:36:14;631.67;;;463.13;;
48361;SDS011;34510;51.888;5.670;2023-04-28T01:41:22;635.55;;;457.08;;
48361;SDS011;34510;51.888;5.670;2023-04-28T01:46:23;622.72;;;437.20;;
48361;SDS011;34510;51.888;5.670;2023-04-28T01:51:26;676.95;;;447.00;;
48361;SDS011;34510;51.888;5.670;2023-04-28T01:56:28;730.75;;;455.60;;
48361;SDS011;34510;51.888;5.670;2023-04-28T02:01:33;750.17;;;435.00;;
48361;SDS011;34510;51.888;5.670;2023-04-28T02:06:35;760.35;;;453.23;;
48361;SDS011;34510;51.888;5.670;2023-04-28T02:11:38;757.72;;;445.08;;
48361;SDS011;34510;51.888;5.670;2023-04-28T02:16:44;760.75;;;452.02;;
48361;SDS011;34510;51.888;5.670;2023-04-28T02:22:01;754.92;;;436.73;;
48361;SDS011;34510;51.888;5.670;2023-04-28T02:27:03;761.50;;;434.30;;
48361;SDS011;34510;51.888;5.670;2023-04-28T02:32:06;764.00;;;458.25;;
48361;SDS011;34510;51.888;5.670;2023-04-28T02:37:24;753.78;;;431.52;;
48361;SDS011;34510;51.888;5.670;2023-04-28T02:42:27;755.08;;;434.27;;
48361;SDS011;34510;51.888;5.670;2023-04-28T02:47:29;756.58;;;444.65;;
48361;SDS011;34510;51.888;5.670;2023-04-28T02:52:31;752.92;;;428.98;;
48361;SDS011;34510;51.888;5.670;2023-04-28T02:57:33;752.75;;;437.55;;
48361;SDS011;34510;51.888;5.670;2023-04-28T03:02:36;753.55;;;451.63;;
48361;SDS011;34510;51.888;5.670;2023-04-28T03:07:38;753.85;;;444.80;;
48361;SDS011;34510;51.888;5.670;2023-04-28T03:12:43;763.90;;;463.05;;
48361;SDS011;34510;51.888;5.670;2023-04-28T03:17:46;760.17;;;450.25;;
48361;SDS011;34510;51.888;5.670;2023-04-28T03:22:48;756.60;;;437.00;;
48361;SDS011;34510;51.888;5.670;2023-04-28T03:27:50;760.47;;;450.83;;
48361;SDS011;34510;51.888;5.670;2023-04-28T03:32:53;748.83;;;435.70;;
48361;SDS011;34510;51.888;5.670;2023-04-28T03:37:58;753.83;;;438.05;;
48361;SDS011;34510;51.888;5.670;2023-04-28T03:43:01;754.70;;;434.25;;
48361;SDS011;34510;51.888;5.670;2023-04-28T03:48:16;756.42;;;425.30;;
48361;SDS011;34510;51.888;5.670;2023-04-28T03:53:19;749.85;;;425.80;;
48361;SDS011;34510;51.888;5.670;2023-04-28T03:58:24;762.92;;;460.55;;
48361;SDS011;34510;51.888;5.670;2023-04-28T04:03:26;765.47;;;461.27;;
48361;SDS011;34510;51.888;5.670;2023-04-28T04:08:30;749.45;;;423.30;;
48361;SDS011;34510;51.888;5.670;2023-04-28T04:13:34;756.08;;;442.92;;
48361;SDS011;34510;51.888;5.670;2023-04-28T04:18:52;750.70;;;427.95;;
48361;SDS011;34510;51.888;5.670;2023-04-28T04:23:57;756.60;;;442.33;;
48361;SDS011;34510;51.888;5.670;2023-04-28T04:29:00;757.53;;;442.63;;
48361;SDS011;34510;51.888;5.670;2023-04-28T04:34:06;757.40;;;445.65;;
48361;SDS011;34510;51.888;5.670;2023-04-28T04:39:08;754.60;;;440.08;;
48361;SDS011;34510;51.888;5.670;2023-04-28T04:44:13;755.10;;;437.45;;
48361;SDS011;34510;51.888;5.670;2023-04-28T04:49:20;759.92;;;454.55;;
48361;SDS011;34510;51.888;5.670;2023-04-28T04:54:25;751.38;;;434.27;;
48361;SDS011;34510;51.888;5.670;2023-04-28T04:59:27;755.17;;;442.70;;
48361;SDS011;34510;51.888;5.670;2023-04-28T05:04:37;759.58;;;451.13;;
48361;SDS011;34510;51.888;5.670;2023-04-28T05:09:41;761.20;;;455.65;;
48361;SDS011;34510;51.888;5.670;2023-04-28T05:14:43;756.65;;;448.92;;
48361;SDS011;34510;51.888;5.670;2023-04-28T05:19:45;757.17;;;455.50;;
48361;SDS011;34510;51.888;5.670;2023-04-28T05:24:48;764.67;;;472.98;;
48361;SDS011;34510;51.888;5.670;2023-04-28T05:29:50;761.78;;;466.75;;
48361;SDS011;34510;51.888;5.670;2023-04-28T05:34:52;763.28;;;462.17;;
48361;SDS011;34510;51.888;5.670;2023-04-28T05:39:55;760.22;;;466.77;;
48361;SDS011;34510;51.888;5.670;2023-04-28T05:44:57;763.47;;;471.45;;
48361;SDS011;34510;51.888;5.670;2023-04-28T05:49:59;772.65;;;484.05;;
48361;SDS011;34510;51.888;5.670;2023-04-28T05:55:01;760.22;;;450.50;;
48361;SDS011;34510;51.888;5.670;2023-04-28T06:00:04;766.92;;;480.70;;
48361;SDS011;34510;51.888;5.670;2023-04-28T06:05:13;770.88;;;482.65;;
48361;SDS011;34510;51.888;5.670;2023-04-28T06:10:16;761.70;;;481.70;;
48361;SDS011;34510;51.888;5.670;2023-04-28T06:15:19;778.40;;;504.23;;
48361;SDS011;34510;51.888;5.670;2023-04-28T06:20:22;775.20;;;481.58;;
48361;SDS011;34510;51.888;5.670;2023-04-28T06:25:25;775.63;;;506.08;;
48361;SDS011;34510;51.888;5.670;2023-04-28T06:30:27;774.05;;;501.67;;
48361;SDS011;34510;51.888;5.670;2023-04-28T06:35:32;779.45;;;517.72;;
48361;SDS011;34510;51.888;5.670;2023-04-28T06:40:37;761.17;;;510.55;;
48361;SDS011;34510;51.888;5.670;2023-04-28T06:45:43;773.92;;;545.75;;
48361;SDS011;34510;51.888;5.670;2023-04-28T06:50:45;778.90;;;555.33;;
48361;SDS011;34510;51.888;5.670;2023-04-28T06:55:48;742.65;;;557.15;;
48361;SDS011;34510;51.888;5.670;2023-04-28T07:00:51;752.63;;;580.97;;
48361;SDS011;34510;51.888;5.670;2023-04-28T07:05:55;770.75;;;586.97;;
48361;SDS011;34510;51.888;5.670;2023-04-28T07:10:57;791.45;;;584.22;;
48361;SDS011;34510;51.888;5.670;2023-04-28T07:21:07;802.83;;;598.97;;
48361;SDS011;34510;51.888;5.670;2023-04-28T07:26:09;798.60;;;579.90;;
48361;SDS011;34510;51.888;5.670;2023-04-28T07:31:14;800.28;;;601.90;;
48361;SDS011;34510;51.888;5.670;2023-04-28T07:36:20;808.25;;;614.55;;
48361;SDS011;34510;51.888;5.670;2023-04-28T07:41:25;809.25;;;616.63;;
48361;SDS011;34510;51.888;5.670;2023-04-28T07:46:28;793.50;;;609.00;;
48361;SDS011;34510;51.888;5.670;2023-04-28T07:51:32;813.05;;;629.17;;
48361;SDS011;34510;51.888;5.670;2023-04-28T07:56:37;805.67;;;623.00;;
48361;SDS011;34510;51.888;5.670;2023-04-28T08:02:25;809.95;;;633.65;;
48361;SDS011;34510;51.888;5.670;2023-04-28T08:07:11;810.33;;;643.40;;
48361;SDS011;34510;51.888;5.670;2023-04-28T08:12:13;798.80;;;638.90;;
48361;SDS011;34510;51.888;5.670;2023-04-28T08:17:16;815.95;;;660.58;;
48361;SDS011;34510;51.888;5.670;2023-04-28T08:22:18;767.67;;;648.63;;
48361;SDS011;34510;51.888;5.670;2023-04-28T08:27:20;767.90;;;679.28;;
48361;SDS011;34510;51.888;5.670;2023-04-28T08:32:24;779.90;;;665.25;;
48361;SDS011;34510;51.888;5.670;2023-04-28T08:37:26;788.22;;;659.58;;
48361;SDS011;34510;51.888;5.670;2023-04-28T08:42:30;788.35;;;650.25;;
48361;SDS011;34510;51.888;5.670;2023-04-28T08:47:37;798.47;;;667.10;;
48361;SDS011;34510;51.888;5.670;2023-04-28T08:52:42;797.97;;;677.80;;
48361;SDS011;34510;51.888;5.670;2023-04-28T08:57:45;794.97;;;685.63;;
48361;SDS011;34510;51.888;5.670;2023-04-28T09:02:52;818.63;;;696.55;;
48361;SDS011;34510;51.888;5.670;2023-04-28T09:07:55;825.67;;;691.55;;
48361;SDS011;34510;51.888;5.670;2023-04-28T09:12:59;815.63;;;678.08;;
48361;SDS011;34510;51.888;5.670;2023-04-28T09:18:05;808.58;;;679.25;;
48361;SDS011;34510;51.888;5.670;2023-04-28T09:23:32;818.40;;;693.85;;
48361;SDS011;34510;51.888;5.670;2023-04-28T09:28:40;816.67;;;693.63;;
48361;SDS011;34510;51.888;5.670;2023-04-28T09:33:55;822.22;;;688.30;;
48361;SDS011;34510;51.888;5.670;2023-04-28T09:38:57;824.42;;;696.60;;
48361;SDS011;34510;51.888;5.670;2023-04-28T09:49:17;829.70;;;704.60;;
48361;SDS011;34510;51.888;5.670;2023-04-28T09:54:27;828.60;;;701.78;;
48361;SDS011;34510;51.888;5.670;2023-04-28T09:59:31;834.20;;;719.42;;
48361;SDS011;34510;51.888;5.670;2023-04-28T10:04:41;828.13;;;709.67;;
48361;SDS011;34510;51.888;5.670;2023-04-28T10:10:09;837.08;;;727.60;;
48361;SDS011;34510;51.888;5.670;2023-04-28T10:15:33;827.65;;;715.92;;
48361;SDS011;34510;51.888;5.670;2023-04-28T10:20:47;815.33;;;713.25;;
48361;SDS011;34510;51.888;5.670;2023-04-28T10:25:51;835.08;;;736.75;;
48361;SDS011;34510;51.888;5.670;2023-04-28T10:31:11;823.60;;;718.00;;
48361;SDS011;34510;51.888;5.670;2023-04-28T10:41:56;817.92;;;726.92;;
48361;SDS011;34510;51.888;5.670;2023-04-28T10:47:01;845.25;;;755.45;;
48361;SDS011;34510;51.888;5.670;2023-04-28T10:57:41;824.95;;;735.33;;
48361;SDS011;34510;51.888;5.670;2023-04-28T11:02:44;830.05;;;741.03;;
48361;SDS011;34510;51.888;5.670;2023-04-28T11:13:28;813.67;;;724.35;;
48361;SDS011;34510;51.888;5.670;2023-04-28T11:18:43;812.72;;;724.50;;
48361;SDS011;34510;51.888;5.670;2023-04-28T11:23:58;811.30;;;722.40;;
48361;SDS011;34510;51.888;5.670;2023-04-28T11:29:33;811.58;;;722.05;;
48361;SDS011;34510;51.888;5.670;2023-04-28T11:34:50;825.70;;;736.75;;
48361;SDS011;34510;51.888;5.670;2023-04-28T11:39:54;824.45;;;735.80;;
48361;SDS011;34510;51.888;5.670;2023-04-28T11:45:00;844.00;;;754.17;;
48361;SDS011;34510;51.888;5.670;2023-04-28T11:50:39;828.05;;;740.00;;
48361;SDS011;34510;51.888;5.670;2023-04-28T11:55:47;827.40;;;739.45;;
48361;SDS011;34510;51.888;5.670;2023-04-28T12:01:09;836.78;;;747.05;;
48361;SDS011;34510;51.888;5.670;2023-04-28T12:06:16;845.13;;;755.83;;
48361;SDS011;34510;51.888;5.670;2023-04-28T12:11:21;839.28;;;750.50;;
48361;SDS011;34510;51.888;5.670;2023-04-28T12:16:35;838.50;;;751.55;;
48361;SDS011;34510;51.888;5.670;2023-04-28T12:21:40;828.10;;;740.80;;
48361;SDS011;34510;51.888;5.670;2023-04-28T12:26:44;819.65;;;732.47;;
48361;SDS011;34510;51.888;5.670;2023-04-28T12:31:48;821.33;;;733.45;;
48361;SDS011;34510;51.888;5.670;2023-04-28T12:36:52;827.50;;;740.40;;
48361;SDS011;34510;51.888;5.670;2023-04-28T12:42:02;822.20;;;734.00;;
48361;SDS011;34510;51.888;5.670;2023-04-28T12:47:07;839.55;;;751.90;;
48361;SDS011;34510;51.888;5.670;2023-04-28T12:57:20;827.72;;;740.55;;
48361;SDS011;34510;51.888;5.670;2023-04-28T13:02:23;820.13;;;733.90;;
48361;SDS011;34510;51.888;5.670;2023-04-28T13:07:26;834.40;;;747.13;;
48361;SDS011;34510;51.888;5.670;2023-04-28T13:12:28;833.33;;;744.67;;
48361;SDS011;34510;51.888;5.670;2023-04-28T13:17:34;840.08;;;750.08;;
48361;SDS011;34510;51.888;5.670;2023-04-28T13:22:38;849.70;;;758.95;;
48361;SDS011;34510;51.888;5.670;2023-04-28T13:27:43;867.50;;;774.85;;
48361;SDS011;34510;51.888;5.670;2023-04-28T13:32:45;875.85;;;783.58;;
48361;SDS011;34510;51.888;5.670;2023-04-28T13:37:47;865.60;;;772.63;;
48361;SDS011;34510;51.888;5.670;2023-04-28T13:42:50;909.83;;;814.42;;
48361;SDS011;34510;51.888;5.670;2023-04-28T13:47:59;903.28;;;807.95;;
48361;SDS011;34510;51.888;5.670;2023-04-28T13:53:02;878.05;;;784.05;;
48361;SDS011;34510;51.888;5.670;2023-04-28T13:58:07;871.15;;;777.92;;
48361;SDS011;34510;51.888;5.670;2023-04-28T14:03:09;878.17;;;784.55;;
48361;SDS011;34510;51.888;5.670;2023-04-28T14:08:12;882.90;;;789.17;;
48361;SDS011;34510;51.888;5.670;2023-04-28T14:13:14;889.25;;;794.90;;
48361;SDS011;34510;51.888;5.670;2023-04-28T14:18:17;891.10;;;796.58;;
48361;SDS011;34510;51.888;5.670;2023-04-28T14:23:23;896.08;;;801.35;;
48361;SDS011;34510;51.888;5.670;2023-04-28T14:28:25;892.95;;;799.13;;
48361;SDS011;34510;51.888;5.670;2023-04-28T14:33:27;881.42;;;787.25;;
48361;SDS011;34510;51.888;5.670;2023-04-28T14:38:29;890.88;;;796.70;;
48361;SDS011;34510;51.888;5.670;2023-04-28T14:43:35;867.33;;;773.92;;
48361;SDS011;34510;51.888;5.670;2023-04-28T14:48:39;875.75;;;782.13;;
48361;SDS011;34510;51.888;5.670;2023-04-28T14:53:41;861.05;;;768.00;;
48361;SDS011;34510;51.888;5.670;2023-04-28T14:58:43;861.22;;;769.38;;
48361;SDS011;34510;51.888;5.670;2023-04-28T15:03:49;834.90;;;744.40;;
48361;SDS011;34510;51.888;5.670;2023-04-28T15:08:51;833.25;;;742.55;;
48361;SDS011;34510;51.888;5.670;2023-04-28T15:13:53;845.08;;;754.40;;
48361;SDS011;34510;51.888;5.670;2023-04-28T15:18:55;854.67;;;762.95;;
48361;SDS011;34510;51.888;5.670;2023-04-28T15:23:59;837.63;;;746.90;;
48361;SDS011;34510;51.888;5.670;2023-04-28T15:29:03;834.08;;;743.17;;
48361;SDS011;34510;51.888;5.670;2023-04-28T15:34:06;840.03;;;748.28;;
48361;SDS011;34510;51.888;5.670;2023-04-28T15:39:12;831.80;;;739.05;;
48361;SDS011;34510;51.888;5.670;2023-04-28T15:44:16;826.50;;;732.33;;
48361;SDS011;34510;51.888;5.670;2023-04-28T15:49:19;825.97;;;729.92;;
48361;SDS011;34510;51.888;5.670;2023-04-28T15:54:31;822.28;;;726.45;;
48361;SDS011;34510;51.888;5.670;2023-04-28T15:59:33;825.42;;;735.53;;
48361;SDS011;34510;51.888;5.670;2023-04-28T16:04:36;815.90;;;726.33;;
48361;SDS011;34510;51.888;5.670;2023-04-28T16:09:40;811.45;;;722.20;;
48361;SDS011;34510;51.888;5.670;2023-04-28T16:14:43;824.83;;;734.28;;
48361;SDS011;34510;51.888;5.670;2023-04-28T16:19:45;813.75;;;723.38;;
48361;SDS011;34510;51.888;5.670;2023-04-28T16:24:47;807.03;;;718.53;;
48361;SDS011;34510;51.888;5.670;2023-04-28T16:29:50;811.65;;;722.80;;
48361;SDS011;34510;51.888;5.670;2023-04-28T16:35:08;817.08;;;727.35;;
48361;SDS011;34510;51.888;5.670;2023-04-28T16:40:27;814.53;;;724.78;;
48361;SDS011;34510;51.888;5.670;2023-04-28T16:45:35;812.53;;;710.60;;
48361;SDS011;34510;51.888;5.670;2023-04-28T16:50:38;815.28;;;717.78;;
48361;SDS011;34510;51.888;5.670;2023-04-28T16:55:42;806.78;;;715.30;;
48361;SDS011;34510;51.888;5.670;2023-04-28T17:00:43;817.95;;;722.53;;
48361;SDS011;34510;51.888;5.670;2023-04-28T17:05:45;816.63;;;715.22;;
48361;SDS011;34510;51.888;5.670;2023-04-28T17:10:47;812.85;;;711.75;;
48361;SDS011;34510;51.888;5.670;2023-04-28T17:15:53;809.85;;;705.83;;
48361;SDS011;34510;51.888;5.670;2023-04-28T17:20:55;819.83;;;715.22;;
48361;SDS011;34510;51.888;5.670;2023-04-28T17:25:58;823.67;;;719.53;;
48361;SDS011;34510;51.888;5.670;2023-04-28T17:31:00;823.25;;;713.42;;
48361;SDS011;34510;51.888;5.670;2023-04-28T17:36:04;814.03;;;697.63;;
48361;SDS011;34510;51.888;5.670;2023-04-28T17:41:07;810.70;;;688.58;;
48361;SDS011;34510;51.888;5.670;2023-04-28T17:46:09;806.80;;;681.92;;
48361;SDS011;34510;51.888;5.670;2023-04-28T17:51:19;808.45;;;689.15;;
48361;SDS011;34510;51.888;5.670;2023-04-28T17:56:22;802.92;;;691.03;;
48361;SDS011;34510;51.888;5.670;2023-04-28T18:01:24;807.70;;;693.70;;
48361;SDS011;34510;51.888;5.670;2023-04-28T18:06:27;816.35;;;690.40;;
48361;SDS011;34510;51.888;5.670;2023-04-28T18:11:30;816.80;;;691.65;;
48361;SDS011;34510;51.888;5.670;2023-04-28T18:16:32;807.83;;;671.47;;
48361;SDS011;34510;51.888;5.670;2023-04-28T18:21:37;813.78;;;687.03;;
48361;SDS011;34510;51.888;5.670;2023-04-28T18:26:41;810.90;;;691.15;;
48361;SDS011;34510;51.888;5.670;2023-04-28T18:31:51;804.67;;;669.78;;
48361;SDS011;34510;51.888;5.670;2023-04-28T18:36:53;811.03;;;682.38;;
48361;SDS011;34510;51.888;5.670;2023-04-28T18:42:01;808.38;;;676.72;;
48361;SDS011;34510;51.888;5.670;2023-04-28T18:47:06;818.15;;;696.83;;
48361;SDS011;34510;51.888;5.670;2023-04-28T18:52:09;814.65;;;686.60;;
48361;SDS011;34510;51.888;5.670;2023-04-28T18:57:11;807.30;;;663.72;;
48361;SDS011;34510;51.888;5.670;2023-04-28T19:02:13;809.00;;;665.03;;
48361;SDS011;34510;51.888;5.670;2023-04-28T19:07:17;810.05;;;674.28;;
48361;SDS011;34510;51.888;5.670;2023-04-28T19:12:19;809.63;;;668.35;;
48361;SDS011;34510;51.888;5.670;2023-04-28T19:17:22;805.88;;;658.60;;
48361;SDS011;34510;51.888;5.670;2023-04-28T19:22:35;807.13;;;662.90;;
48361;SDS011;34510;51.888;5.670;2023-04-28T19:27:39;803.90;;;634.83;;
48361;SDS011;34510;51.888;5.670;2023-04-28T19:32:43;800.00;;;622.33;;
48361;SDS011;34510;51.888;5.670;2023-04-28T19:37:45;813.33;;;631.78;;
48361;SDS011;34510;51.888;5.670;2023-04-28T19:42:48;815.33;;;631.28;;
48361;SDS011;34510;51.888;5.670;2023-04-28T19:47:51;815.40;;;620.08;;
48361;SDS011;34510;51.888;5.670;2023-04-28T19:52:54;812.83;;;614.28;;
48361;SDS011;34510;51.888;5.670;2023-04-28T19:57:56;814.45;;;622.85;;
48361;SDS011;34510;51.888;5.670;2023-04-28T20:03:02;807.42;;;594.63;;
48361;SDS011;34510;51.888;5.670;2023-04-28T20:08:10;807.20;;;599.45;;
48361;SDS011;34510;51.888;5.670;2023-04-28T20:13:14;803.42;;;606.75;;
48361;SDS011;34510;51.888;5.670;2023-04-28T20:18:16;806.65;;;604.22;;
48361;SDS011;34510;51.888;5.670;2023-04-28T20:23:18;805.90;;;604.08;;
48361;SDS011;34510;51.888;5.670;2023-04-28T20:28:26;814.80;;;612.65;;
48361;SDS011;34510;51.888;5.670;2023-04-28T20:33:29;812.35;;;599.20;;
48361;SDS011;34510;51.888;5.670;2023-04-28T20:38:31;813.28;;;603.08;;
48361;SDS011;34510;51.888;5.670;2023-04-28T20:43:33;809.47;;;596.92;;
48361;SDS011;34510;51.888;5.670;2023-04-28T20:48:35;808.28;;;586.78;;
48361;SDS011;34510;51.888;5.670;2023-04-28T20:53:38;807.28;;;588.90;;
48361;SDS011;34510;51.888;5.670;2023-04-28T20:58:40;808.58;;;574.15;;
48361;SDS011;34510;51.888;5.670;2023-04-28T21:03:45;807.85;;;590.58;;
48361;SDS011;34510;51.888;5.670;2023-04-28T21:08:56;801.85;;;586.08;;
48361;SDS011;34510;51.888;5.670;2023-04-28T21:13:59;807.90;;;585.58;;
48361;SDS011;34510;51.888;5.670;2023-04-28T21:19:02;806.25;;;583.40;;
48361;SDS011;34510;51.888;5.670;2023-04-28T21:24:04;801.55;;;575.03;;
48361;SDS011;34510;51.888;5.670;2023-04-28T21:29:08;806.22;;;585.75;;
48361;SDS011;34510;51.888;5.670;2023-04-28T21:34:10;810.45;;;592.35;;
48361;SDS011;34510;51.888;5.670;2023-04-28T21:39:13;808.30;;;580.83;;
48361;SDS011;34510;51.888;5.670;2023-04-28T21:44:14;815.03;;;590.85;;
48361;SDS011;34510;51.888;5.670;2023-04-28T21:49:17;811.08;;;574.42;;
48361;SDS011;34510;51.888;5.670;2023-04-28T21:54:26;820.20;;;585.95;;
48361;SDS011;34510;51.888;5.670;2023-04-28T21:59:38;809.33;;;567.10;;
48361;SDS011;34510;51.888;5.670;2023-04-28T22:04:54;824.65;;;578.03;;
48361;SDS011;34510;51.888;5.670;2023-04-28T22:09:59;809.45;;;546.50;;
48361;SDS011;34510;51.888;5.670;2023-04-28T22:15:01;809.90;;;533.65;;
48361;SDS011;34510;51.888;5.670;2023-04-28T22:20:03;814.60;;;522.72;;
48361;SDS011;34510;51.888;5.670;2023-04-28T22:25:06;813.30;;;537.65;;
48361;SDS011;34510;51.888;5.670;2023-04-28T22:30:14;821.35;;;544.65;;
48361;SDS011;34510;51.888;5.670;2023-04-28T22:35:16;810.05;;;539.17;;
48361;SDS011;34510;51.888;5.670;2023-04-28T22:40:19;805.70;;;538.75;;
48361;SDS011;34510;51.888;5.670;2023-04-28T22:45:27;808.70;;;532.92;;
48361;SDS011;34510;51.888;5.670;2023-04-28T22:50:29;803.38;;;530.40;;
48361;SDS011;34510;51.888;5.670;2023-04-28T22:55:43;812.28;;;536.83;;
48361;SDS011;34510;51.888;5.670;2023-04-28T23:01:00;807.90;;;529.65;;
48361;SDS011;34510;51.888;5.670;2023-04-28T23:06:05;803.22;;;529.65;;
48361;SDS011;34510;51.888;5.670;2023-04-28T23:11:07;796.97;;;518.25;;
48361;SDS011;34510;51.888;5.670;2023-04-28T23:16:10;788.65;;;520.95;;
48361;SDS011;34510;51.888;5.670;2023-04-28T23:21:21;785.22;;;523.70;;
48361;SDS011;34510;51.888;5.670;2023-04-28T23:26:24;786.03;;;521.78;;
48361;SDS011;34510;51.888;5.670;2023-04-28T23:31:28;777.70;;;520.47;;
48361;SDS011;34510;51.888;5.670;2023-04-28T23:36:31;792.75;;;509.55;;
48361;SDS011;34510;51.888;5.670;2023-04-28T23:41:33;786.70;;;499.17;;
48361;SDS011;34510;51.888;5.670;2023-04-28T23:46:37;784.42;;;511.13;;
48361;SDS011;34510;51.888;5.670;2023-04-28T23:51:39;785.30;;;501.80;;
48361;SDS011;34510;51.888;5.670;2023-04-28T23:56:41;786.53;;;523.63;;
